sensor_id;sensor_type;location;lat;lon;timestamp;temperature;humidity
22716;DHT22;11525;51.152;4.456;2024-03-29T00:00:46;11.00;99.90
22716;DHT22;11525;51.152;4.456;2024-03-29T00:03:11;10.90;99.90
22716;DHT22;11525;51.152;4.456;2024-03-29T00:05:37;11.00;99.90
22716;DHT22;11525;51.152;4.456;2024-03-29T00:08:04;10.80;99.90
22716;DHT22;11525;51.152;4.456;2024-03-29T00:10:29;10.70;99.90
22716;DHT22;11525;51.152;4.456;2024-03-29T00:12:55;10.70;99.90
22716;DHT22;11525;51.152;4.456;2024-03-29T00:15:21;10.70;99.90
22716;DHT22;11525;51.152;4.456;2024-03-29T00:17:46;10.80;99.90
22716;DHT22;11525;51.152;4.456;2024-03-29T00:20:12;10.90;99.90
22716;DHT22;11525;51.152;4.456;2024-03-29T00:22:38;10.80;99.90
22716;DHT22;11525;51.152;4.456;2024-03-29T00:25:04;10.80;99.90
22716;DHT22;11525;51.152;4.456;2024-03-29T00:27:29;10.70;99.90
22716;DHT22;11525;51.152;4.456;2024-03-29T00:29:56;10.80;99.90
22716;DHT22;11525;51.152;4.456;2024-03-29T00:32:21;10.90;99.90
22716;DHT22;11525;51.152;4.456;2024-03-29T00:34:50;10.90;99.90
22716;DHT22;11525;51.152;4.456;2024-03-29T00:37:15;10.80;99.90
22716;DHT22;11525;51.152;4.456;2024-03-29T00:39:41;10.80;99.90
22716;DHT22;11525;51.152;4.456;2024-03-29T00:42:10;10.90;99.90
22716;DHT22;11525;51.152;4.456;2024-03-29T00:44:47;10.90;99.90
22716;DHT22;11525;51.152;4.456;2024-03-29T00:47:13;10.90;99.90
22716;DHT22;11525;51.152;4.456;2024-03-29T00:49:39;10.90;99.90
22716;DHT22;11525;51.152;4.456;2024-03-29T00:52:04;10.80;99.90
22716;DHT22;11525;51.152;4.456;2024-03-29T00:54:31;10.80;99.90
22716;DHT22;11525;51.152;4.456;2024-03-29T00:56:57;10.90;99.90
22716;DHT22;11525;51.152;4.456;2024-03-29T00:59:22;10.80;99.90
22716;DHT22;11525;51.152;4.456;2024-03-29T01:01:49;10.90;99.90
22716;DHT22;11525;51.152;4.456;2024-03-29T01:04:14;10.90;99.90
22716;DHT22;11525;51.152;4.456;2024-03-29T01:06:40;10.90;99.90
22716;DHT22;11525;51.152;4.456;2024-03-29T01:09:06;10.90;99.90
22716;DHT22;11525;51.152;4.456;2024-03-29T01:11:32;11.10;99.90
22716;DHT22;11525;51.152;4.456;2024-03-29T01:13:58;11.00;99.90
22716;DHT22;11525;51.152;4.456;2024-03-29T01:16:24;10.90;99.90
22716;DHT22;11525;51.152;4.456;2024-03-29T01:18:50;11.00;99.90
22716;DHT22;11525;51.152;4.456;2024-03-29T01:21:17;11.20;99.90
22716;DHT22;11525;51.152;4.456;2024-03-29T01:23:43;11.10;99.90
22716;DHT22;11525;51.152;4.456;2024-03-29T01:26:09;11.10;99.90
22716;DHT22;11525;51.152;4.456;2024-03-29T01:28:38;11.20;99.90
22716;DHT22;11525;51.152;4.456;2024-03-29T01:31:04;11.30;99.90
22716;DHT22;11525;51.152;4.456;2024-03-29T01:33:31;11.30;99.90
22716;DHT22;11525;51.152;4.456;2024-03-29T01:36:05;11.30;99.90
22716;DHT22;11525;51.152;4.456;2024-03-29T01:38:31;11.50;99.90
22716;DHT22;11525;51.152;4.456;2024-03-29T01:40:57;11.50;99.90
22716;DHT22;11525;51.152;4.456;2024-03-29T01:43:23;11.50;99.90
22716;DHT22;11525;51.152;4.456;2024-03-29T01:45:49;11.50;99.90
22716;DHT22;11525;51.152;4.456;2024-03-29T01:48:17;11.70;99.90
22716;DHT22;11525;51.152;4.456;2024-03-29T01:50:43;11.80;99.90
22716;DHT22;11525;51.152;4.456;2024-03-29T01:53:10;11.80;99.90
22716;DHT22;11525;51.152;4.456;2024-03-29T01:55:37;11.70;99.90
22716;DHT22;11525;51.152;4.456;2024-03-29T01:58:03;11.70;99.90
22716;DHT22;11525;51.152;4.456;2024-03-29T02:00:31;11.70;99.90
22716;DHT22;11525;51.152;4.456;2024-03-29T02:02:57;11.70;99.90
22716;DHT22;11525;51.152;4.456;2024-03-29T02:05:23;11.70;99.90
22716;DHT22;11525;51.152;4.456;2024-03-29T02:07:50;11.70;99.90
22716;DHT22;11525;51.152;4.456;2024-03-29T02:10:16;11.80;99.90
22716;DHT22;11525;51.152;4.456;2024-03-29T02:12:42;11.70;99.90
22716;DHT22;11525;51.152;4.456;2024-03-29T02:15:08;11.60;99.90
22716;DHT22;11525;51.152;4.456;2024-03-29T02:17:33;11.60;99.90
22716;DHT22;11525;51.152;4.456;2024-03-29T02:19:59;11.60;99.90
22716;DHT22;11525;51.152;4.456;2024-03-29T02:22:25;11.60;99.90
22716;DHT22;11525;51.152;4.456;2024-03-29T02:24:54;11.50;99.90
22716;DHT22;11525;51.152;4.456;2024-03-29T02:27:21;11.60;99.90
22716;DHT22;11525;51.152;4.456;2024-03-29T02:29:47;11.50;99.90
22716;DHT22;11525;51.152;4.456;2024-03-29T02:32:12;11.30;99.90
22716;DHT22;11525;51.152;4.456;2024-03-29T02:34:38;11.30;99.90
22716;DHT22;11525;51.152;4.456;2024-03-29T02:37:04;11.30;99.90
22716;DHT22;11525;51.152;4.456;2024-03-29T02:39:30;11.30;99.90
22716;DHT22;11525;51.152;4.456;2024-03-29T02:41:55;11.20;99.90
22716;DHT22;11525;51.152;4.456;2024-03-29T02:44:21;11.20;99.90
22716;DHT22;11525;51.152;4.456;2024-03-29T02:46:47;11.10;99.90
22716;DHT22;11525;51.152;4.456;2024-03-29T02:49:12;11.20;99.90
22716;DHT22;11525;51.152;4.456;2024-03-29T02:51:38;11.30;99.90
22716;DHT22;11525;51.152;4.456;2024-03-29T02:54:04;11.40;99.90
22716;DHT22;11525;51.152;4.456;2024-03-29T02:56:29;11.20;99.90
22716;DHT22;11525;51.152;4.456;2024-03-29T02:58:56;11.10;99.90
22716;DHT22;11525;51.152;4.456;2024-03-29T03:01:21;11.10;99.90
22716;DHT22;11525;51.152;4.456;2024-03-29T03:03:47;11.00;99.90
22716;DHT22;11525;51.152;4.456;2024-03-29T03:06:13;11.10;99.90
22716;DHT22;11525;51.152;4.456;2024-03-29T03:08:38;11.00;99.90
22716;DHT22;11525;51.152;4.456;2024-03-29T03:11:22;10.90;99.90
22716;DHT22;11525;51.152;4.456;2024-03-29T03:13:48;10.80;99.90
22716;DHT22;11525;51.152;4.456;2024-03-29T03:16:14;10.90;99.90
22716;DHT22;11525;51.152;4.456;2024-03-29T03:18:40;11.00;99.90
22716;DHT22;11525;51.152;4.456;2024-03-29T03:21:05;11.00;99.90
22716;DHT22;11525;51.152;4.456;2024-03-29T03:23:31;11.00;99.90
22716;DHT22;11525;51.152;4.456;2024-03-29T03:25:58;11.00;99.90
22716;DHT22;11525;51.152;4.456;2024-03-29T03:28:25;11.00;99.90
22716;DHT22;11525;51.152;4.456;2024-03-29T03:30:54;10.80;99.90
22716;DHT22;11525;51.152;4.456;2024-03-29T03:33:20;10.50;99.90
22716;DHT22;11525;51.152;4.456;2024-03-29T03:35:46;10.50;99.90
22716;DHT22;11525;51.152;4.456;2024-03-29T03:38:12;10.40;99.90
22716;DHT22;11525;51.152;4.456;2024-03-29T03:40:38;10.30;99.90
22716;DHT22;11525;51.152;4.456;2024-03-29T03:43:05;10.20;99.90
22716;DHT22;11525;51.152;4.456;2024-03-29T03:45:38;10.10;99.90
22716;DHT22;11525;51.152;4.456;2024-03-29T03:48:08;10.00;99.90
22716;DHT22;11525;51.152;4.456;2024-03-29T03:50:35;10.00;99.90
22716;DHT22;11525;51.152;4.456;2024-03-29T03:53:01;9.90;99.90
22716;DHT22;11525;51.152;4.456;2024-03-29T03:55:27;10.00;99.90
22716;DHT22;11525;51.152;4.456;2024-03-29T03:57:53;9.80;99.90
22716;DHT22;11525;51.152;4.456;2024-03-29T04:00:20;9.80;99.90
22716;DHT22;11525;51.152;4.456;2024-03-29T04:02:50;9.60;99.90
22716;DHT22;11525;51.152;4.456;2024-03-29T04:05:19;9.40;99.90
22716;DHT22;11525;51.152;4.456;2024-03-29T04:07:46;9.50;99.90
22716;DHT22;11525;51.152;4.456;2024-03-29T04:10:12;9.50;99.90
22716;DHT22;11525;51.152;4.456;2024-03-29T04:12:38;9.40;99.90
22716;DHT22;11525;51.152;4.456;2024-03-29T04:15:04;9.40;99.90
22716;DHT22;11525;51.152;4.456;2024-03-29T04:17:31;9.50;99.90
22716;DHT22;11525;51.152;4.456;2024-03-29T04:19:57;9.40;99.90
22716;DHT22;11525;51.152;4.456;2024-03-29T04:22:23;9.30;99.90
22716;DHT22;11525;51.152;4.456;2024-03-29T04:24:49;9.10;99.90
22716;DHT22;11525;51.152;4.456;2024-03-29T04:27:15;9.10;99.90
22716;DHT22;11525;51.152;4.456;2024-03-29T04:29:40;9.00;99.90
22716;DHT22;11525;51.152;4.456;2024-03-29T04:32:06;9.10;99.90
22716;DHT22;11525;51.152;4.456;2024-03-29T04:34:33;9.10;99.90
22716;DHT22;11525;51.152;4.456;2024-03-29T04:36:58;9.00;99.90
22716;DHT22;11525;51.152;4.456;2024-03-29T04:39:25;8.90;99.90
22716;DHT22;11525;51.152;4.456;2024-03-29T04:41:50;8.90;99.90
22716;DHT22;11525;51.152;4.456;2024-03-29T04:44:27;8.90;99.90
22716;DHT22;11525;51.152;4.456;2024-03-29T04:46:53;9.10;99.90
22716;DHT22;11525;51.152;4.456;2024-03-29T04:49:22;8.90;99.90
22716;DHT22;11525;51.152;4.456;2024-03-29T04:51:50;8.90;99.90
22716;DHT22;11525;51.152;4.456;2024-03-29T04:54:19;8.90;99.90
22716;DHT22;11525;51.152;4.456;2024-03-29T04:56:45;8.90;99.90
22716;DHT22;11525;51.152;4.456;2024-03-29T04:59:10;9.00;99.90
22716;DHT22;11525;51.152;4.456;2024-03-29T05:01:36;9.00;99.90
22716;DHT22;11525;51.152;4.456;2024-03-29T05:04:02;8.90;99.90
22716;DHT22;11525;51.152;4.456;2024-03-29T05:06:29;8.80;99.90
22716;DHT22;11525;51.152;4.456;2024-03-29T05:08:55;8.80;99.90
22716;DHT22;11525;51.152;4.456;2024-03-29T05:11:21;8.80;99.90
22716;DHT22;11525;51.152;4.456;2024-03-29T05:13:47;8.90;99.90
22716;DHT22;11525;51.152;4.456;2024-03-29T05:16:13;8.80;99.90
22716;DHT22;11525;51.152;4.456;2024-03-29T05:18:38;8.80;99.90
22716;DHT22;11525;51.152;4.456;2024-03-29T05:21:04;8.70;99.90
22716;DHT22;11525;51.152;4.456;2024-03-29T05:23:30;8.70;99.90
22716;DHT22;11525;51.152;4.456;2024-03-29T05:25:56;8.70;99.90
22716;DHT22;11525;51.152;4.456;2024-03-29T05:28:21;8.80;99.90
22716;DHT22;11525;51.152;4.456;2024-03-29T05:30:48;8.70;99.90
22716;DHT22;11525;51.152;4.456;2024-03-29T05:33:14;8.70;99.90
22716;DHT22;11525;51.152;4.456;2024-03-29T05:35:41;8.90;99.90
22716;DHT22;11525;51.152;4.456;2024-03-29T05:38:06;9.00;99.90
22716;DHT22;11525;51.152;4.456;2024-03-29T05:40:32;9.00;99.90
22716;DHT22;11525;51.152;4.456;2024-03-29T05:42:58;8.80;99.90
22716;DHT22;11525;51.152;4.456;2024-03-29T05:45:28;8.80;99.90
22716;DHT22;11525;51.152;4.456;2024-03-29T05:47:55;8.80;99.90
22716;DHT22;11525;51.152;4.456;2024-03-29T05:50:22;9.00;99.90
22716;DHT22;11525;51.152;4.456;2024-03-29T05:52:50;9.00;99.90
22716;DHT22;11525;51.152;4.456;2024-03-29T05:55:16;9.00;99.90
22716;DHT22;11525;51.152;4.456;2024-03-29T05:57:42;9.00;99.90
22716;DHT22;11525;51.152;4.456;2024-03-29T06:00:11;9.00;99.90
22716;DHT22;11525;51.152;4.456;2024-03-29T06:02:37;9.00;99.90
22716;DHT22;11525;51.152;4.456;2024-03-29T06:05:03;9.00;99.90
22716;DHT22;11525;51.152;4.456;2024-03-29T06:07:30;8.90;99.90
22716;DHT22;11525;51.152;4.456;2024-03-29T06:09:59;9.00;99.90
22716;DHT22;11525;51.152;4.456;2024-03-29T06:12:25;9.10;99.90
22716;DHT22;11525;51.152;4.456;2024-03-29T06:14:51;9.20;99.90
22716;DHT22;11525;51.152;4.456;2024-03-29T06:17:36;9.00;99.90
22716;DHT22;11525;51.152;4.456;2024-03-29T06:20:03;9.10;99.90
22716;DHT22;11525;51.152;4.456;2024-03-29T06:22:30;9.20;99.90
22716;DHT22;11525;51.152;4.456;2024-03-29T06:24:56;9.30;99.90
22716;DHT22;11525;51.152;4.456;2024-03-29T06:27:30;9.40;99.90
22716;DHT22;11525;51.152;4.456;2024-03-29T06:29:56;9.50;99.90
22716;DHT22;11525;51.152;4.456;2024-03-29T06:32:22;9.50;99.90
22716;DHT22;11525;51.152;4.456;2024-03-29T06:34:47;9.70;99.90
22716;DHT22;11525;51.152;4.456;2024-03-29T06:37:14;9.60;99.90
22716;DHT22;11525;51.152;4.456;2024-03-29T06:39:39;9.70;99.90
22716;DHT22;11525;51.152;4.456;2024-03-29T06:42:06;9.70;99.90
22716;DHT22;11525;51.152;4.456;2024-03-29T06:44:35;9.90;99.90
22716;DHT22;11525;51.152;4.456;2024-03-29T06:47:02;10.10;99.90
22716;DHT22;11525;51.152;4.456;2024-03-29T06:49:28;10.30;99.90
22716;DHT22;11525;51.152;4.456;2024-03-29T06:51:54;10.60;99.90
22716;DHT22;11525;51.152;4.456;2024-03-29T06:54:21;10.60;99.90
22716;DHT22;11525;51.152;4.456;2024-03-29T06:56:52;10.50;99.90
22716;DHT22;11525;51.152;4.456;2024-03-29T06:59:18;10.20;99.90
22716;DHT22;11525;51.152;4.456;2024-03-29T07:01:44;10.20;99.90
22716;DHT22;11525;51.152;4.456;2024-03-29T07:04:09;10.30;99.90
22716;DHT22;11525;51.152;4.456;2024-03-29T07:06:35;10.30;99.90
22716;DHT22;11525;51.152;4.456;2024-03-29T07:09:03;10.30;99.90
22716;DHT22;11525;51.152;4.456;2024-03-29T07:11:29;10.30;99.90
22716;DHT22;11525;51.152;4.456;2024-03-29T07:13:55;10.50;99.90
22716;DHT22;11525;51.152;4.456;2024-03-29T07:16:21;10.70;99.90
22716;DHT22;11525;51.152;4.456;2024-03-29T07:18:47;10.60;99.90
22716;DHT22;11525;51.152;4.456;2024-03-29T07:21:12;10.50;99.90
22716;DHT22;11525;51.152;4.456;2024-03-29T07:23:38;10.30;99.90
22716;DHT22;11525;51.152;4.456;2024-03-29T07:26:05;10.30;99.90
22716;DHT22;11525;51.152;4.456;2024-03-29T07:28:30;10.30;99.90
22716;DHT22;11525;51.152;4.456;2024-03-29T07:30:57;10.20;99.90
22716;DHT22;11525;51.152;4.456;2024-03-29T07:33:24;10.20;99.90
22716;DHT22;11525;51.152;4.456;2024-03-29T07:35:52;10.00;99.90
22716;DHT22;11525;51.152;4.456;2024-03-29T07:38:19;10.00;99.90
22716;DHT22;11525;51.152;4.456;2024-03-29T07:40:47;10.10;99.90
22716;DHT22;11525;51.152;4.456;2024-03-29T07:43:13;10.50;99.90
22716;DHT22;11525;51.152;4.456;2024-03-29T07:45:45;10.60;99.90
22716;DHT22;11525;51.152;4.456;2024-03-29T07:48:12;10.50;99.90
22716;DHT22;11525;51.152;4.456;2024-03-29T07:50:42;10.30;99.90
22716;DHT22;11525;51.152;4.456;2024-03-29T07:53:08;10.50;99.90
22716;DHT22;11525;51.152;4.456;2024-03-29T07:55:39;10.40;99.90
22716;DHT22;11525;51.152;4.456;2024-03-29T07:58:05;10.30;99.90
22716;DHT22;11525;51.152;4.456;2024-03-29T08:00:32;10.30;99.90
22716;DHT22;11525;51.152;4.456;2024-03-29T08:02:58;10.30;99.90
22716;DHT22;11525;51.152;4.456;2024-03-29T08:05:24;10.40;99.90
22716;DHT22;11525;51.152;4.456;2024-03-29T08:07:49;10.50;99.90
22716;DHT22;11525;51.152;4.456;2024-03-29T08:10:15;10.40;99.90
22716;DHT22;11525;51.152;4.456;2024-03-29T08:12:41;10.70;99.90
22716;DHT22;11525;51.152;4.456;2024-03-29T08:15:07;11.20;99.90
22716;DHT22;11525;51.152;4.456;2024-03-29T08:17:34;12.30;99.90
22716;DHT22;11525;51.152;4.456;2024-03-29T08:20:00;13.20;99.90
22716;DHT22;11525;51.152;4.456;2024-03-29T08:22:25;14.00;99.90
22716;DHT22;11525;51.152;4.456;2024-03-29T08:24:51;15.10;99.90
22716;DHT22;11525;51.152;4.456;2024-03-29T08:27:17;15.20;99.90
22716;DHT22;11525;51.152;4.456;2024-03-29T08:29:43;15.60;99.90
22716;DHT22;11525;51.152;4.456;2024-03-29T08:32:09;15.60;99.90
22716;DHT22;11525;51.152;4.456;2024-03-29T08:34:38;15.70;99.90
22716;DHT22;11525;51.152;4.456;2024-03-29T08:37:04;15.50;99.90
22716;DHT22;11525;51.152;4.456;2024-03-29T08:39:30;14.90;99.90
22716;DHT22;11525;51.152;4.456;2024-03-29T08:41:57;15.00;99.90
22716;DHT22;11525;51.152;4.456;2024-03-29T08:44:22;15.20;99.90
22716;DHT22;11525;51.152;4.456;2024-03-29T08:46:50;15.90;99.90
22716;DHT22;11525;51.152;4.456;2024-03-29T08:49:16;17.20;99.90
22716;DHT22;11525;51.152;4.456;2024-03-29T08:51:42;18.80;99.90
22716;DHT22;11525;51.152;4.456;2024-03-29T08:54:07;19.10;99.90
22716;DHT22;11525;51.152;4.456;2024-03-29T08:56:33;18.90;99.90
22716;DHT22;11525;51.152;4.456;2024-03-29T08:59:03;19.20;99.90
22716;DHT22;11525;51.152;4.456;2024-03-29T09:01:33;19.80;99.90
22716;DHT22;11525;51.152;4.456;2024-03-29T09:03:59;20.80;99.90
22716;DHT22;11525;51.152;4.456;2024-03-29T09:06:25;21.30;99.90
22716;DHT22;11525;51.152;4.456;2024-03-29T09:08:50;21.30;99.90
22716;DHT22;11525;51.152;4.456;2024-03-29T09:11:16;21.00;99.90
22716;DHT22;11525;51.152;4.456;2024-03-29T09:13:42;21.40;99.90
22716;DHT22;11525;51.152;4.456;2024-03-29T09:16:07;21.30;99.00
22716;DHT22;11525;51.152;4.456;2024-03-29T09:18:34;20.80;98.30
22716;DHT22;11525;51.152;4.456;2024-03-29T09:21:00;19.80;99.90
22716;DHT22;11525;51.152;4.456;2024-03-29T09:23:26;18.80;99.90
22716;DHT22;11525;51.152;4.456;2024-03-29T09:25:56;18.50;99.90
22716;DHT22;11525;51.152;4.456;2024-03-29T09:28:25;18.10;99.90
22716;DHT22;11525;51.152;4.456;2024-03-29T09:30:58;18.00;99.90
22716;DHT22;11525;51.152;4.456;2024-03-29T09:33:24;17.70;99.90
22716;DHT22;11525;51.152;4.456;2024-03-29T09:35:50;17.10;99.90
22716;DHT22;11525;51.152;4.456;2024-03-29T09:38:16;16.80;99.90
22716;DHT22;11525;51.152;4.456;2024-03-29T09:40:41;16.70;99.90
22716;DHT22;11525;51.152;4.456;2024-03-29T09:43:09;16.50;99.90
22716;DHT22;11525;51.152;4.456;2024-03-29T09:45:36;16.30;99.90
22716;DHT22;11525;51.152;4.456;2024-03-29T09:48:07;15.80;99.90
22716;DHT22;11525;51.152;4.456;2024-03-29T09:50:33;15.80;99.90
22716;DHT22;11525;51.152;4.456;2024-03-29T09:53:02;16.10;99.90
22716;DHT22;11525;51.152;4.456;2024-03-29T09:55:30;15.90;99.90
22716;DHT22;11525;51.152;4.456;2024-03-29T09:57:56;16.00;99.90
22716;DHT22;11525;51.152;4.456;2024-03-29T10:00:23;16.10;99.90
22716;DHT22;11525;51.152;4.456;2024-03-29T10:02:50;16.30;99.90
22716;DHT22;11525;51.152;4.456;2024-03-29T10:05:18;16.50;99.90
22716;DHT22;11525;51.152;4.456;2024-03-29T10:07:46;16.60;99.90
22716;DHT22;11525;51.152;4.456;2024-03-29T10:10:13;16.40;99.90
22716;DHT22;11525;51.152;4.456;2024-03-29T10:12:39;16.30;99.90
22716;DHT22;11525;51.152;4.456;2024-03-29T10:15:05;16.00;99.90
22716;DHT22;11525;51.152;4.456;2024-03-29T10:17:34;15.90;99.90
22716;DHT22;11525;51.152;4.456;2024-03-29T10:20:04;16.10;99.90
22716;DHT22;11525;51.152;4.456;2024-03-29T10:23:03;15.90;99.90
22716;DHT22;11525;51.152;4.456;2024-03-29T10:25:31;15.90;99.90
22716;DHT22;11525;51.152;4.456;2024-03-29T10:27:56;15.80;99.90
22716;DHT22;11525;51.152;4.456;2024-03-29T10:30:25;15.90;99.90
22716;DHT22;11525;51.152;4.456;2024-03-29T10:32:51;16.20;99.90
22716;DHT22;11525;51.152;4.456;2024-03-29T10:35:17;16.40;99.90
22716;DHT22;11525;51.152;4.456;2024-03-29T10:37:43;16.80;99.90
22716;DHT22;11525;51.152;4.456;2024-03-29T10:40:10;17.30;99.90
22716;DHT22;11525;51.152;4.456;2024-03-29T10:42:39;17.60;99.90
22716;DHT22;11525;51.152;4.456;2024-03-29T10:45:07;17.60;99.90
22716;DHT22;11525;51.152;4.456;2024-03-29T10:47:33;17.90;99.90
22716;DHT22;11525;51.152;4.456;2024-03-29T10:50:00;19.60;99.90
22716;DHT22;11525;51.152;4.456;2024-03-29T10:52:26;21.10;99.90
22716;DHT22;11525;51.152;4.456;2024-03-29T10:54:53;21.90;96.50
22716;DHT22;11525;51.152;4.456;2024-03-29T10:57:26;21.70;96.10
22716;DHT22;11525;51.152;4.456;2024-03-29T11:00:08;20.60;96.70
22716;DHT22;11525;51.152;4.456;2024-03-29T11:02:48;19.70;98.40
22716;DHT22;11525;51.152;4.456;2024-03-29T11:05:16;19.30;98.90
22716;DHT22;11525;51.152;4.456;2024-03-29T11:07:43;19.00;99.70
22716;DHT22;11525;51.152;4.456;2024-03-29T11:13:06;18.20;99.90
22716;DHT22;11525;51.152;4.456;2024-03-29T11:15:38;17.90;99.90
22716;DHT22;11525;51.152;4.456;2024-03-29T11:18:05;17.80;99.90
22716;DHT22;11525;51.152;4.456;2024-03-29T11:20:33;17.80;99.90
22716;DHT22;11525;51.152;4.456;2024-03-29T11:23:20;17.90;99.90
22716;DHT22;11525;51.152;4.456;2024-03-29T11:25:50;18.00;99.90
22716;DHT22;11525;51.152;4.456;2024-03-29T11:28:25;18.10;99.90
22716;DHT22;11525;51.152;4.456;2024-03-29T11:30:52;18.50;99.90
22716;DHT22;11525;51.152;4.456;2024-03-29T11:38:50;18.30;99.90
22716;DHT22;11525;51.152;4.456;2024-03-29T11:41:20;18.40;99.90
22716;DHT22;11525;51.152;4.456;2024-03-29T11:43:49;18.50;99.90
22716;DHT22;11525;51.152;4.456;2024-03-29T11:46:15;18.70;99.90
22716;DHT22;11525;51.152;4.456;2024-03-29T11:48:41;18.50;99.90
22716;DHT22;11525;51.152;4.456;2024-03-29T11:51:11;18.60;99.90
22716;DHT22;11525;51.152;4.456;2024-03-29T11:53:37;18.30;99.90
22716;DHT22;11525;51.152;4.456;2024-03-29T11:56:04;18.50;99.90
22716;DHT22;11525;51.152;4.456;2024-03-29T11:58:31;18.30;99.90
22716;DHT22;11525;51.152;4.456;2024-03-29T12:00:58;18.10;99.90
22716;DHT22;11525;51.152;4.456;2024-03-29T12:03:26;18.10;99.90
22716;DHT22;11525;51.152;4.456;2024-03-29T12:05:53;18.10;99.90
22716;DHT22;11525;51.152;4.456;2024-03-29T12:08:24;18.20;99.90
22716;DHT22;11525;51.152;4.456;2024-03-29T12:10:50;18.20;99.90
22716;DHT22;11525;51.152;4.456;2024-03-29T12:13:16;18.40;99.90
22716;DHT22;11525;51.152;4.456;2024-03-29T12:15:42;18.70;99.90
22716;DHT22;11525;51.152;4.456;2024-03-29T12:18:08;18.70;99.90
22716;DHT22;11525;51.152;4.456;2024-03-29T12:20:35;18.50;99.90
22716;DHT22;11525;51.152;4.456;2024-03-29T12:23:03;18.50;99.90
22716;DHT22;11525;51.152;4.456;2024-03-29T12:25:30;18.40;99.90
22716;DHT22;11525;51.152;4.456;2024-03-29T12:27:57;18.40;99.90
22716;DHT22;11525;51.152;4.456;2024-03-29T12:30:24;18.50;99.90
22716;DHT22;11525;51.152;4.456;2024-03-29T12:33:12;18.70;99.90
22716;DHT22;11525;51.152;4.456;2024-03-29T12:35:44;18.50;99.90
22716;DHT22;11525;51.152;4.456;2024-03-29T12:38:12;18.30;99.90
22716;DHT22;11525;51.152;4.456;2024-03-29T12:40:45;18.30;99.90
22716;DHT22;11525;51.152;4.456;2024-03-29T12:43:13;18.40;99.90
22716;DHT22;11525;51.152;4.456;2024-03-29T12:45:41;18.30;99.90
22716;DHT22;11525;51.152;4.456;2024-03-29T12:48:19;18.00;99.90
22716;DHT22;11525;51.152;4.456;2024-03-29T12:50:45;17.90;99.90
22716;DHT22;11525;51.152;4.456;2024-03-29T12:53:13;18.00;99.90
22716;DHT22;11525;51.152;4.456;2024-03-29T12:55:40;17.90;99.90
22716;DHT22;11525;51.152;4.456;2024-03-29T12:58:11;18.10;99.90
22716;DHT22;11525;51.152;4.456;2024-03-29T13:00:38;18.00;99.90
22716;DHT22;11525;51.152;4.456;2024-03-29T13:03:05;18.00;99.70
22716;DHT22;11525;51.152;4.456;2024-03-29T13:05:31;17.80;99.90
22716;DHT22;11525;51.152;4.456;2024-03-29T13:08:04;18.00;99.90
22716;DHT22;11525;51.152;4.456;2024-03-29T13:10:30;18.20;99.90
22716;DHT22;11525;51.152;4.456;2024-03-29T13:12:56;18.20;99.90
22716;DHT22;11525;51.152;4.456;2024-03-29T13:15:23;18.00;99.90
22716;DHT22;11525;51.152;4.456;2024-03-29T13:17:56;17.80;99.90
22716;DHT22;11525;51.152;4.456;2024-03-29T13:20:23;17.60;99.90
22716;DHT22;11525;51.152;4.456;2024-03-29T13:22:49;17.80;99.90
22716;DHT22;11525;51.152;4.456;2024-03-29T13:25:16;17.40;99.90
22716;DHT22;11525;51.152;4.456;2024-03-29T13:27:43;17.40;99.90
22716;DHT22;11525;51.152;4.456;2024-03-29T13:30:13;17.70;99.90
22716;DHT22;11525;51.152;4.456;2024-03-29T13:32:42;17.60;99.90
22716;DHT22;11525;51.152;4.456;2024-03-29T13:35:10;17.60;99.90
22716;DHT22;11525;51.152;4.456;2024-03-29T13:37:39;17.60;99.90
22716;DHT22;11525;51.152;4.456;2024-03-29T13:40:06;17.30;99.90
22716;DHT22;11525;51.152;4.456;2024-03-29T13:42:33;17.60;99.90
22716;DHT22;11525;51.152;4.456;2024-03-29T13:44:58;17.40;99.90
22716;DHT22;11525;51.152;4.456;2024-03-29T13:47:24;17.10;99.90
22716;DHT22;11525;51.152;4.456;2024-03-29T13:49:50;17.00;99.90
22716;DHT22;11525;51.152;4.456;2024-03-29T13:52:20;17.20;99.90
22716;DHT22;11525;51.152;4.456;2024-03-29T13:54:46;17.20;99.90
22716;DHT22;11525;51.152;4.456;2024-03-29T13:57:16;17.10;99.90
22716;DHT22;11525;51.152;4.456;2024-03-29T13:59:45;17.10;99.90
22716;DHT22;11525;51.152;4.456;2024-03-29T14:02:18;17.20;99.90
22716;DHT22;11525;51.152;4.456;2024-03-29T14:04:45;17.20;99.70
22716;DHT22;11525;51.152;4.456;2024-03-29T14:07:12;17.20;99.60
22716;DHT22;11525;51.152;4.456;2024-03-29T14:09:39;17.20;99.90
22716;DHT22;11525;51.152;4.456;2024-03-29T14:12:05;17.50;99.90
22716;DHT22;11525;51.152;4.456;2024-03-29T14:14:31;17.70;99.60
22716;DHT22;11525;51.152;4.456;2024-03-29T14:16:57;18.00;99.60
22716;DHT22;11525;51.152;4.456;2024-03-29T14:19:23;18.10;98.70
22716;DHT22;11525;51.152;4.456;2024-03-29T14:21:49;18.10;97.70
22716;DHT22;11525;51.152;4.456;2024-03-29T14:24:15;17.90;98.30
22716;DHT22;11525;51.152;4.456;2024-03-29T14:26:44;17.90;98.60
22716;DHT22;11525;51.152;4.456;2024-03-29T14:29:09;17.80;99.60
22716;DHT22;11525;51.152;4.456;2024-03-29T14:31:37;17.90;99.90
22716;DHT22;11525;51.152;4.456;2024-03-29T14:34:03;17.90;99.80
22716;DHT22;11525;51.152;4.456;2024-03-29T14:36:28;17.80;99.30
22716;DHT22;11525;51.152;4.456;2024-03-29T14:38:58;17.80;99.00
22716;DHT22;11525;51.152;4.456;2024-03-29T14:41:26;17.80;99.90
22716;DHT22;11525;51.152;4.456;2024-03-29T14:43:52;17.90;99.90
22716;DHT22;11525;51.152;4.456;2024-03-29T14:46:18;17.80;99.80
22716;DHT22;11525;51.152;4.456;2024-03-29T14:48:46;17.80;99.50
22716;DHT22;11525;51.152;4.456;2024-03-29T14:51:12;17.70;99.10
22716;DHT22;11525;51.152;4.456;2024-03-29T14:53:38;17.50;99.20
22716;DHT22;11525;51.152;4.456;2024-03-29T14:56:04;17.30;99.80
22716;DHT22;11525;51.152;4.456;2024-03-29T14:58:30;17.30;99.90
22716;DHT22;11525;51.152;4.456;2024-03-29T15:00:56;17.10;99.90
22716;DHT22;11525;51.152;4.456;2024-03-29T15:03:21;16.90;99.90
22716;DHT22;11525;51.152;4.456;2024-03-29T15:05:49;16.80;99.90
22716;DHT22;11525;51.152;4.456;2024-03-29T15:08:15;16.80;99.90
22716;DHT22;11525;51.152;4.456;2024-03-29T15:10:44;16.90;99.90
22716;DHT22;11525;51.152;4.456;2024-03-29T15:13:09;16.80;99.90
22716;DHT22;11525;51.152;4.456;2024-03-29T15:15:35;16.80;99.90
22716;DHT22;11525;51.152;4.456;2024-03-29T15:18:05;16.80;99.90
22716;DHT22;11525;51.152;4.456;2024-03-29T15:20:34;16.90;99.40
22716;DHT22;11525;51.152;4.456;2024-03-29T15:23:00;16.70;99.60
22716;DHT22;11525;51.152;4.456;2024-03-29T15:25:25;16.80;99.80
22716;DHT22;11525;51.152;4.456;2024-03-29T15:27:51;16.80;99.90
22716;DHT22;11525;51.152;4.456;2024-03-29T15:30:35;16.80;99.40
22716;DHT22;11525;51.152;4.456;2024-03-29T15:33:03;16.90;99.20
22716;DHT22;11525;51.152;4.456;2024-03-29T15:35:29;16.80;99.90
22716;DHT22;11525;51.152;4.456;2024-03-29T15:37:54;17.00;99.80
22716;DHT22;11525;51.152;4.456;2024-03-29T15:40:20;16.90;99.90